createdAt,value
2017-05-04T00:00:02.230Z,9.23
2017-05-04T00:01:11.030Z,9.27
2017-05-04T00:02:19.828Z,9.22
2017-05-04T00:03:29.331Z,9.17
2017-05-04T00:04:38.717Z,9.25
2017-05-04T00:05:47.522Z,9.26
2017-05-04T00:06:57.110Z,9.2
2017-05-04T00:08:06.284Z,9.23
2017-05-04T00:09:16.174Z,9.19
2017-05-04T00:10:25.275Z,9.19
2017-05-04T00:11:34.453Z,9.2
2017-05-04T00:12:44.126Z,9.19
2017-05-04T00:13:54.001Z,9.19
2017-05-04T00:15:03.238Z,9.11
2017-05-04T00:16:12.738Z,9.09
2017-05-04T00:17:21.528Z,9.09
2017-05-04T00:18:30.347Z,9.05
2017-05-04T00:19:39.158Z,9.09
2017-05-04T00:20:48.304Z,8.98
2017-05-04T00:21:57.738Z,9.01
2017-05-04T00:23:07.262Z,8.97
2017-05-04T00:24:16.866Z,8.93
2017-05-04T00:25:26.016Z,8.92
2017-05-04T01:25:12.826Z,8.66
2017-05-04T01:26:22.680Z,8.66
2017-05-04T01:27:31.865Z,8.63
2017-05-04T01:28:41.405Z,8.58
2017-05-04T01:29:51.278Z,8.61
2017-05-04T01:31:01.043Z,8.61
2017-05-04T01:32:10.614Z,8.58
2017-05-04T01:33:20.472Z,8.77
2017-05-04T01:34:30.320Z,8.67
2017-05-04T01:36:48.927Z,8.67
2017-05-04T01:37:58.862Z,8.7
2017-05-04T01:39:08.680Z,8.75
2017-05-04T01:40:18.267Z,8.74
2017-05-04T01:41:27.772Z,8.71
2017-05-04T01:42:37.928Z,8.79
2017-05-04T01:43:47.800Z,8.74
2017-05-04T01:44:57.290Z,8.79
2017-05-04T01:46:06.829Z,8.7
2017-05-04T01:47:16.734Z,8.71
2017-05-04T01:48:26.815Z,8.74
2017-05-04T01:49:36.637Z,8.7
2017-05-04T01:50:46.452Z,8.7
2017-05-04T01:51:55.956Z,8.75
2017-05-04T01:53:05.153Z,8.68
2017-05-04T01:54:15.227Z,8.74
2017-05-04T01:55:25.040Z,8.71
2017-05-04T01:56:34.900Z,8.71
2017-05-04T01:57:44.727Z,8.7
2017-05-04T01:58:54.556Z,8.71
2017-05-04T02:00:04.680Z,8.68
2017-05-04T02:01:14.192Z,8.71
2017-05-04T02:02:24.010Z,8.74
2017-05-04T02:03:33.532Z,8.71
2017-05-04T02:04:42.720Z,8.7
2017-05-04T02:05:52.785Z,8.82
2017-05-04T02:07:01.983Z,8.71
2017-05-04T02:08:11.504Z,8.79
2017-05-04T02:09:21.008Z,8.71
2017-05-04T02:10:30.517Z,8.74
2017-05-04T02:11:40.651Z,8.71
2017-05-04T02:12:50.490Z,8.74
2017-05-04T02:14:00.311Z,8.74
2017-05-04T02:15:09.551Z,8.75
2017-05-04T02:16:19.418Z,8.74
2017-05-04T02:17:29.538Z,8.71
2017-05-04T02:18:39.076Z,8.8
2017-05-04T02:19:49.120Z,8.83
2017-05-04T02:20:58.641Z,8.75
2017-05-04T02:22:08.132Z,8.77
2017-05-04T02:23:18.202Z,8.77
2017-05-04T02:24:28.069Z,8.71
2017-05-04T02:25:37.917Z,8.79
2017-05-04T02:26:47.450Z,8.7
2017-05-04T02:27:57.278Z,8.71
2017-05-04T02:29:07.106Z,8.79
2017-05-04T02:30:16.912Z,8.71
2017-05-04T02:31:26.588Z,8.64
2017-05-04T02:32:36.079Z,8.61
2017-05-04T02:33:45.630Z,8.68
2017-05-04T02:34:55.063Z,8.74
2017-05-04T02:36:04.606Z,8.6
2017-05-04T02:37:14.433Z,8.67
2017-05-04T02:38:23.932Z,8.77
2017-05-04T02:39:33.757Z,8.71
2017-05-04T02:40:43.507Z,8.74
2017-05-04T02:41:53.109Z,8.66
2017-05-04T02:43:02.610Z,8.61
2017-05-04T02:44:11.794Z,8.66
2017-05-04T02:45:21.310Z,8.68
2017-05-04T02:46:31.085Z,8.68
2017-05-04T02:47:40.930Z,8.77
2017-05-04T02:48:50.434Z,8.7
2017-05-04T02:50:00.292Z,8.74
2017-05-04T02:51:09.793Z,8.7
2017-05-04T02:52:19.881Z,8.79
2017-05-04T02:53:29.717Z,8.8
2017-05-04T02:54:39.669Z,8.75
2017-05-04T02:55:49.176Z,8.74
2017-05-04T02:56:58.749Z,8.74
2017-05-04T02:58:08.962Z,8.71
2017-05-04T02:59:18.821Z,8.71
2017-05-04T03:00:28.379Z,8.66
2017-05-04T03:01:38.234Z,8.63
2017-05-04T03:02:48.060Z,8.58
2017-05-04T03:03:57.919Z,8.58
2017-05-04T03:05:08.086Z,8.55
2017-05-04T03:06:17.335Z,8.42
2017-05-04T03:07:27.186Z,8.58
2017-05-04T03:08:36.692Z,8.45
2017-05-04T03:09:46.437Z,8.45
2017-05-04T03:10:56.266Z,8.4
2017-05-04T03:12:06.077Z,8.4
2017-05-04T03:13:16.023Z,8.42
2017-05-04T03:14:25.882Z,8.39
2017-05-04T03:15:35.950Z,8.35
2017-05-04T03:16:45.151Z,8.4
2017-05-04T03:17:54.650Z,8.46
2017-05-04T03:19:04.534Z,8.4
2017-05-04T03:20:14.043Z,8.4
2017-05-04T03:21:24.119Z,8.45
2017-05-04T03:22:33.650Z,8.4
2017-05-04T03:23:43.143Z,8.35
2017-05-04T03:24:52.694Z,8.46
2017-05-04T03:26:01.888Z,8.35
2017-05-04T03:27:11.669Z,8.43
2017-05-04T03:28:21.186Z,8.45
2017-05-04T03:29:30.733Z,8.46
2017-05-04T03:30:40.242Z,8.45
2017-05-04T03:31:50.066Z,8.39
2017-05-04T03:33:00.213Z,8.42
2017-05-04T03:34:10.130Z,8.32
2017-05-04T03:35:19.974Z,8.39
2017-05-04T03:36:29.506Z,8.32
2017-05-04T03:37:39.069Z,8.35
2017-05-04T03:38:48.824Z,8.35
2017-05-04T03:39:58.815Z,8.34
2017-05-04T03:41:08.705Z,8.39
2017-05-04T03:42:18.263Z,8.45
2017-05-04T03:43:27.901Z,8.4
2017-05-04T03:44:37.659Z,8.37
2017-05-04T03:45:47.522Z,8.37
2017-05-04T03:46:57.113Z,8.35
2017-05-04T03:48:06.969Z,8.4
2017-05-04T03:49:16.795Z,8.31
2017-05-04T03:50:26.881Z,8.24
2017-05-04T03:51:36.379Z,8.15
2017-05-04T03:52:46.201Z,8.31
2017-05-04T03:53:56.078Z,8.28
2017-05-04T03:55:05.979Z,8.17
2017-05-04T03:56:15.752Z,8.23
2017-05-04T03:57:25.371Z,8.21
2017-05-04T03:58:35.189Z,8.12
2017-05-04T03:59:45.026Z,8.1
2017-05-04T04:00:54.218Z,7.97
2017-05-04T04:02:04.289Z,8.03
2017-05-04T04:03:13.858Z,7.99
2017-05-04T04:04:23.683Z,7.98
2017-05-04T04:05:33.508Z,7.95
2017-05-04T04:06:43.003Z,8.07
2017-05-04T04:07:52.764Z,8.03
2017-05-04T04:09:02.653Z,8.03
2017-05-04T04:10:12.481Z,7.91
2017-05-04T04:11:22.306Z,7.92
2017-05-04T04:12:31.495Z,7.94
2017-05-04T04:13:41.567Z,8.03
2017-05-04T04:14:51.388Z,8.03
2017-05-04T04:16:00.921Z,8.02
2017-05-04T04:17:10.430Z,8.03
2017-05-04T04:18:20.244Z,7.95
2017-05-04T04:19:30.332Z,7.92
2017-05-04T04:20:39.877Z,7.91
2017-05-04T04:21:49.743Z,7.98
2017-05-04T04:22:59.578Z,8.09
2017-05-04T04:24:09.392Z,7.99
2017-05-04T04:25:19.148Z,8.07
2017-05-04T04:26:28.971Z,8.03
2017-05-04T04:27:38.878Z,8.03
2017-05-04T04:28:48.701Z,8.09
2017-05-04T04:29:58.226Z,8.06
2017-05-04T04:31:07.675Z,8.09
2017-05-04T04:32:17.297Z,8.02
2017-05-04T04:33:27.133Z,7.99
2017-05-04T04:34:36.950Z,7.99
2017-05-04T04:35:46.470Z,8.02
2017-05-04T04:36:56.532Z,8.07
2017-05-04T04:38:06.364Z,8.05
2017-05-04T04:39:16.213Z,8.06
2017-05-04T04:40:26.063Z,7.9
2017-05-04T04:41:35.891Z,7.84
2017-05-04T04:42:45.714Z,7.85
2017-05-04T04:43:55.552Z,7.87
2017-05-04T04:45:05.378Z,7.84
2017-05-04T04:46:14.903Z,7.82
2017-05-04T04:47:24.412Z,7.88
2017-05-04T04:48:34.553Z,7.92
2017-05-04T04:49:43.751Z,7.87
2017-05-04T04:50:53.624Z,7.88
2017-05-04T04:52:03.120Z,7.84
2017-05-04T04:53:12.962Z,7.82
2017-05-04T04:54:23.033Z,7.82
2017-05-04T04:55:32.853Z,7.82
2017-05-04T04:56:42.695Z,7.92
2017-05-04T04:57:52.507Z,7.87
2017-05-04T04:59:02.124Z,7.87
2017-05-04T05:00:12.215Z,7.9
2017-05-04T05:01:22.062Z,7.9
2017-05-04T05:02:31.905Z,7.9
2017-05-04T05:03:41.494Z,7.98
2017-05-04T05:04:51.328Z,8.06
2017-05-04T05:06:01.524Z,8.06
2017-05-04T05:07:11.534Z,7.99
2017-05-04T05:08:21.047Z,8.05
2017-05-04T05:09:30.905Z,8.05
2017-05-04T05:10:40.082Z,7.98
2017-05-04T05:11:49.876Z,7.99
2017-05-04T05:12:59.437Z,8.06
2017-05-04T05:14:08.935Z,7.99
2017-05-04T05:15:18.803Z,8.02
2017-05-04T05:16:28.312Z,8.12
2017-05-04T05:17:37.855Z,8.16
2017-05-04T05:18:47.401Z,8.16
2017-05-04T05:19:57.248Z,8.12
2017-05-04T05:21:07.199Z,8.12
2017-05-04T05:22:17.032Z,8.09
2017-05-04T05:23:26.472Z,8.15
2017-05-04T05:24:36.301Z,8.15
2017-05-04T05:25:46.153Z,8.16
2017-05-04T05:26:55.966Z,8.1
2017-05-04T05:28:05.480Z,8.1
2017-05-04T05:29:15.567Z,8.15
2017-05-04T05:30:25.385Z,8.13
2017-05-04T05:31:35.004Z,8.17
2017-05-04T05:32:44.506Z,7.99
2017-05-04T05:33:54.164Z,8.1
2017-05-04T05:35:04.254Z,8.02
2017-05-04T05:36:14.088Z,8.06
2017-05-04T05:37:23.918Z,8.07
2017-05-04T05:38:33.438Z,7.97
2017-05-04T05:39:42.976Z,8.07
2017-05-04T05:40:52.785Z,8.05
2017-05-04T05:42:01.973Z,8.1
2017-05-04T05:43:11.468Z,8.1
2017-05-04T05:44:21.281Z,8.1
2017-05-04T05:45:30.171Z,8.02
2017-05-04T05:46:39.959Z,8.02
2017-05-04T05:47:49.472Z,8.03
2017-05-04T05:48:59.290Z,7.97
2017-05-04T05:50:09.114Z,7.98
2017-05-04T05:51:18.679Z,7.91
2017-05-04T05:52:28.420Z,7.94
2017-05-04T05:53:38.006Z,7.98
2017-05-04T05:54:47.816Z,8.07
2017-05-04T05:55:57.020Z,8.05
2017-05-04T05:57:06.540Z,8.02
2017-05-04T05:58:16.723Z,8.1
2017-05-04T05:59:26.274Z,8.02
2017-05-04T06:00:36.096Z,8.03
2017-05-04T06:01:45.615Z,8.02
2017-05-04T06:02:54.808Z,7.99
2017-05-04T06:04:04.936Z,8.06
2017-05-04T06:05:14.795Z,7.99
2017-05-04T06:06:24.616Z,7.91
2017-05-04T06:07:34.176Z,7.88
2017-05-04T06:08:44.000Z,7.95
2017-05-04T06:09:54.066Z,7.87
2017-05-04T06:11:04.072Z,7.82
2017-05-04T06:12:13.592Z,7.84
2017-05-04T06:13:23.433Z,7.87
2017-05-04T06:14:32.665Z,7.84
2017-05-04T06:15:42.412Z,7.84
2017-05-04T06:16:51.916Z,7.82
2017-05-04T06:18:01.426Z,7.79
2017-05-04T06:19:11.291Z,7.74
2017-05-04T06:20:21.146Z,7.76
2017-05-04T06:21:30.919Z,7.87
2017-05-04T06:22:40.753Z,7.82
2017-05-04T06:23:50.268Z,7.82
2017-05-04T06:24:59.775Z,7.82
2017-05-04T06:26:08.332Z,7.77
2017-05-04T06:27:17.798Z,7.84
2017-05-04T06:28:26.705Z,7.79
2017-05-04T06:29:36.716Z,7.8
2017-05-04T06:30:46.536Z,7.76
2017-05-04T06:31:56.367Z,7.84
2017-05-04T06:33:06.252Z,7.84
2017-05-04T06:34:15.809Z,7.79
2017-05-04T06:35:25.327Z,7.9
2017-05-04T06:36:34.822Z,7.82
2017-05-04T06:37:44.767Z,7.82
2017-05-04T06:38:54.969Z,7.9
2017-05-04T06:40:04.865Z,7.84
2017-05-04T06:41:14.698Z,7.88
2017-05-04T06:42:24.530Z,7.82
2017-05-04T06:43:34.051Z,7.88
2017-05-04T06:44:44.204Z,7.87
2017-05-04T06:45:54.074Z,7.92
2017-05-04T06:47:03.895Z,7.98
2017-05-04T06:48:13.715Z,7.97
2017-05-04T06:49:23.533Z,7.97
2017-05-04T06:50:33.628Z,7.9
2017-05-04T06:51:43.671Z,7.87
2017-05-04T06:52:53.529Z,7.88
2017-05-04T06:54:03.086Z,7.88
2017-05-04T06:55:12.276Z,7.92
2017-05-04T06:56:22.376Z,7.95
2017-05-04T06:57:31.996Z,7.95
2017-05-04T06:58:41.794Z,7.85
2017-05-04T06:59:51.740Z,7.88
2017-05-04T07:01:01.261Z,7.9
2017-05-04T07:02:11.339Z,7.82
2017-05-04T07:03:20.868Z,7.82
2017-05-04T07:04:30.727Z,7.87
2017-05-04T07:05:40.558Z,7.85
2017-05-04T07:06:50.051Z,7.84
2017-05-04T07:07:59.490Z,7.85
2017-05-04T07:09:09.041Z,7.84
2017-05-04T07:10:18.862Z,7.79
2017-05-04T07:11:28.668Z,7.85
2017-05-04T07:12:38.486Z,7.73
2017-05-04T07:13:48.379Z,7.77
2017-05-04T07:14:58.309Z,7.76
2017-05-04T07:16:08.141Z,7.76
2017-05-04T07:17:17.673Z,7.76
2017-05-04T07:18:27.487Z,7.84
2017-05-04T07:19:36.929Z,7.79
2017-05-04T07:20:46.434Z,7.79
2017-05-04T07:21:55.998Z,7.84
2017-05-04T07:23:05.519Z,7.87
2017-05-04T07:24:15.348Z,7.94
2017-05-04T07:25:25.420Z,7.9
2017-05-04T07:26:35.278Z,7.87
2017-05-04T07:27:44.473Z,7.94
2017-05-04T07:28:53.703Z,7.98
2017-05-04T07:30:03.547Z,7.95
2017-05-04T07:31:13.676Z,7.97
2017-05-04T07:32:23.504Z,7.88
2017-05-04T07:33:33.043Z,7.91
2017-05-04T07:34:42.557Z,7.97
2017-05-04T07:35:52.403Z,7.94
2017-05-04T07:37:02.227Z,7.92
2017-05-04T07:38:11.833Z,7.99
2017-05-04T07:39:21.658Z,8.03
2017-05-04T07:40:31.248Z,8.09
2017-05-04T07:41:41.070Z,7.99
2017-05-04T07:42:51.158Z,8.03
2017-05-04T07:44:00.719Z,8.03
2017-05-04T07:45:10.553Z,8.02
2017-05-04T07:46:20.366Z,8.05
2017-05-04T07:47:30.200Z,8.05
2017-05-04T07:48:40.383Z,8.06
2017-05-04T07:49:50.320Z,8.05
2017-05-04T07:51:00.142Z,8.06
2017-05-04T07:52:09.969Z,7.98
2017-05-04T07:53:19.485Z,7.97
2017-05-04T07:54:29.273Z,7.92
2017-05-04T07:55:39.096Z,7.9
2017-05-04T07:56:48.639Z,7.79
2017-05-04T07:57:58.550Z,7.9
2017-05-04T07:59:08.154Z,7.9
2017-05-04T08:00:18.453Z,7.82
2017-05-04T08:01:27.634Z,7.84
2017-05-04T08:02:37.154Z,7.8
2017-05-04T08:03:46.680Z,7.91
2017-05-04T08:04:56.508Z,7.88
2017-05-04T08:06:06.353Z,7.95
2017-05-04T08:07:16.184Z,8.03
2017-05-04T08:08:26.016Z,7.98
2017-05-04T08:09:35.506Z,7.95
2017-05-04T08:10:45.463Z,7.98
2017-05-04T08:11:55.613Z,7.8
2017-05-04T08:13:05.115Z,7.82
2017-05-04T08:14:14.966Z,7.85
2017-05-04T08:15:24.459Z,7.94
2017-05-04T08:16:34.313Z,7.84
2017-05-04T08:17:43.753Z,7.84
2017-05-04T08:18:53.578Z,7.8
2017-05-04T08:20:03.083Z,7.85
2017-05-04T08:21:12.901Z,7.77
2017-05-04T08:22:22.789Z,7.82
2017-05-04T08:23:32.870Z,7.74
2017-05-04T08:24:42.689Z,7.79
2017-05-04T08:25:52.502Z,7.73
2017-05-04T08:27:01.828Z,7.8
2017-05-04T08:28:11.660Z,7.88
2017-05-04T08:29:21.419Z,7.87
2017-05-04T08:30:30.990Z,7.82
2017-05-04T08:31:40.809Z,7.85
2017-05-04T08:32:50.310Z,7.87
2017-05-04T08:34:00.210Z,7.84
2017-05-04T08:35:10.020Z,7.87
2017-05-04T08:36:19.868Z,7.94
2017-05-04T08:37:29.679Z,7.99
2017-05-04T08:38:39.194Z,8.03
2017-05-04T08:39:48.727Z,8.02
2017-05-04T08:40:58.805Z,8.02
2017-05-04T08:42:08.315Z,8.05
2017-05-04T08:43:18.197Z,8.12
2017-05-04T08:44:28.022Z,8.05
2017-05-04T08:45:37.848Z,7.98
2017-05-04T08:46:48.105Z,7.99
2017-05-04T08:47:57.946Z,8.05
2017-05-04T08:49:07.167Z,8.09
2017-05-04T08:50:16.384Z,8.03
2017-05-04T08:51:26.204Z,8.09
2017-05-04T08:52:36.299Z,8.02
2017-05-04T08:53:46.189Z,8.02
2017-05-04T08:54:56.050Z,8.07
2017-05-04T08:56:05.587Z,8.02
2017-05-04T08:57:15.503Z,7.91
2017-05-04T08:58:25.259Z,7.87
2017-05-04T08:59:34.447Z,7.87
2017-05-04T09:00:43.644Z,7.85
2017-05-04T09:01:53.492Z,7.82
2017-05-04T09:03:02.990Z,7.8
2017-05-04T09:04:12.794Z,7.8
2017-05-04T09:05:22.899Z,7.84
2017-05-04T09:06:32.397Z,7.77
2017-05-04T09:07:41.933Z,7.76
2017-05-04T09:08:51.781Z,7.8
2017-05-04T09:10:01.899Z,7.84
2017-05-04T09:11:11.734Z,7.84
2017-05-04T09:12:21.332Z,7.84
2017-05-04T09:13:30.857Z,7.85
2017-05-04T09:14:40.363Z,7.8
2017-05-04T09:15:50.433Z,7.82
2017-05-04T09:16:59.968Z,7.85
2017-05-04T09:18:09.477Z,7.95
2017-05-04T09:19:18.697Z,7.98
2017-05-04T09:20:28.507Z,7.98
2017-05-04T09:21:38.363Z,7.94
2017-05-04T09:22:48.301Z,7.91
2017-05-04T09:23:57.924Z,7.94
2017-05-04T09:25:07.121Z,7.9
2017-05-04T09:26:16.614Z,7.91
2017-05-04T09:27:26.707Z,7.91
2017-05-04T09:28:36.526Z,7.88
2017-05-04T09:29:46.128Z,7.87
2017-05-04T09:30:55.963Z,7.91
2017-05-04T09:32:05.485Z,7.91
2017-05-04T09:33:15.232Z,8.02
2017-05-04T09:34:25.066Z,8.05
2017-05-04T09:35:34.596Z,8.06
2017-05-04T09:36:44.477Z,7.97
2017-05-04T09:37:54.294Z,7.98
2017-05-04T09:39:04.401Z,8.1
2017-05-04T09:40:14.223Z,7.98
2017-05-04T09:41:23.723Z,8.03
2017-05-04T09:42:33.240Z,8.06
2017-05-04T09:43:43.063Z,8.06
2017-05-04T09:44:53.133Z,7.94
2017-05-04T09:46:02.976Z,7.98
2017-05-04T09:47:12.505Z,7.9
2017-05-04T09:48:22.358Z,7.84
2017-05-04T09:49:32.189Z,7.99
2017-05-04T09:50:42.268Z,8.02
2017-05-04T09:51:52.136Z,8.12
2017-05-04T09:53:01.949Z,8.05
2017-05-04T09:54:11.474Z,8.02
2017-05-04T09:55:21.293Z,8.13
2017-05-04T09:56:31.109Z,8.13
2017-05-04T09:57:40.923Z,8.09
2017-05-04T09:58:49.802Z,8.07
2017-05-04T09:59:59.688Z,8.03
2017-05-04T10:01:09.513Z,7.98
2017-05-04T10:02:19.267Z,7.99
2017-05-04T10:03:28.770Z,8.07
2017-05-04T10:04:37.967Z,7.98
2017-05-04T10:05:47.814Z,8.06
2017-05-04T10:06:57.038Z,8.13
2017-05-04T10:08:07.156Z,8.12
2017-05-04T10:09:16.990Z,8.13
2017-05-04T10:10:26.814Z,8.2
2017-05-04T10:11:36.654Z,8.21
2017-05-04T10:12:45.849Z,8.13
2017-05-04T10:13:55.748Z,8.28
2017-05-04T10:15:05.633Z,8.28
2017-05-04T10:16:15.468Z,8.28
2017-05-04T10:17:25.295Z,8.32
2017-05-04T10:18:35.116Z,8.15
2017-05-04T10:19:45.200Z,8.31
2017-05-04T10:20:54.735Z,8.3
2017-05-04T10:22:04.593Z,8.23
2017-05-04T10:23:14.416Z,8.25
2017-05-04T10:24:23.916Z,8.23
2017-05-04T10:25:34.000Z,8.2
2017-05-04T10:26:43.517Z,8.25
2017-05-04T10:27:53.576Z,8.3
2017-05-04T10:29:03.410Z,8.34
2017-05-04T10:30:13.224Z,8.32
2017-05-04T10:31:22.977Z,8.21
2017-05-04T10:32:32.165Z,8.25
2017-05-04T10:33:41.053Z,8.32
2017-05-04T10:34:50.580Z,8.28
2017-05-04T10:36:00.118Z,8.23
2017-05-04T10:37:10.387Z,8.12
2017-05-04T10:38:19.583Z,8.21
2017-05-04T10:39:29.094Z,8.2
2017-05-04T10:40:38.589Z,8.34
2017-05-04T10:41:48.449Z,8.31
2017-05-04T10:42:58.201Z,8.46
2017-05-04T10:44:08.029Z,8.37
2017-05-04T10:45:17.844Z,8.53
2017-05-04T10:46:27.430Z,8.57
2017-05-04T10:47:36.924Z,8.57
2017-05-04T10:48:46.748Z,8.6
2017-05-04T10:49:56.591Z,8.53
2017-05-04T10:51:06.527Z,8.57
2017-05-04T10:52:16.173Z,8.6
2017-05-04T10:53:26.021Z,8.55
2017-05-04T10:54:36.077Z,8.53
2017-05-04T10:55:46.000Z,8.57
2017-05-04T10:56:55.841Z,8.55
2017-05-04T10:58:05.355Z,8.53
2017-05-04T10:59:14.555Z,8.48
2017-05-04T11:00:24.683Z,8.55
2017-05-04T11:01:34.562Z,8.53
2017-05-04T11:02:44.389Z,8.48
2017-05-04T11:03:54.208Z,8.57
2017-05-04T11:05:04.045Z,8.5
2017-05-04T11:06:14.127Z,8.49
2017-05-04T11:07:23.976Z,8.57
2017-05-04T11:08:33.809Z,8.57
2017-05-04T11:09:43.090Z,8.52
2017-05-04T11:10:52.275Z,8.58
2017-05-04T11:12:02.382Z,8.6
2017-05-04T11:13:12.308Z,8.58
2017-05-04T11:14:22.162Z,8.61
2017-05-04T11:15:31.686Z,8.64
2017-05-04T11:16:41.517Z,8.58
2017-05-04T11:17:51.592Z,8.49
2017-05-04T11:19:00.983Z,8.53
2017-05-04T11:20:10.496Z,8.52
2017-05-04T11:21:20.015Z,8.52
2017-05-04T11:22:29.863Z,8.53
2017-05-04T11:23:39.936Z,8.55
2017-05-04T11:24:49.440Z,8.52
2017-05-04T11:25:58.952Z,8.57
2017-05-04T11:27:08.808Z,8.49
2017-05-04T11:28:18.633Z,8.55
2017-05-04T11:29:28.742Z,8.52
2017-05-04T11:30:38.299Z,8.58
2017-05-04T11:31:47.789Z,8.55
2017-05-04T11:32:57.302Z,8.57
2017-05-04T11:34:06.803Z,8.5
2017-05-04T11:35:16.550Z,8.35
2017-05-04T11:36:26.152Z,8.35
2017-05-04T11:37:35.969Z,8.4
2017-05-04T11:38:45.504Z,8.43
2017-05-04T11:39:55.336Z,8.3
2017-05-04T11:41:05.469Z,8.34
2017-05-04T11:42:15.279Z,8.37
2017-05-04T11:43:25.130Z,8.39
2017-05-04T11:44:34.710Z,8.42
2017-05-04T11:45:44.225Z,8.45
2017-05-04T11:46:54.362Z,8.37
2017-05-04T11:48:03.918Z,8.34
2017-05-04T11:49:13.425Z,8.35
2017-05-04T11:50:22.601Z,8.45
2017-05-04T11:51:32.195Z,8.5
2017-05-04T11:52:42.345Z,8.5
2017-05-04T11:53:52.176Z,8.53
2017-05-04T11:55:02.029Z,8.58
2017-05-04T11:56:11.875Z,8.64
2017-05-04T11:57:21.385Z,8.55
2017-05-04T11:58:31.156Z,8.5
2017-05-04T11:59:40.978Z,8.57
2017-05-04T12:00:50.516Z,8.5
2017-05-04T12:02:00.367Z,8.58
2017-05-04T12:03:10.183Z,8.57
2017-05-04T12:04:19.624Z,8.6
2017-05-04T12:05:29.139Z,8.61
2017-05-04T12:06:38.674Z,8.66
2017-05-04T12:07:48.212Z,8.66
2017-05-04T12:08:58.022Z,8.66
2017-05-04T12:10:07.789Z,8.66
2017-05-04T12:11:17.286Z,8.77
2017-05-04T12:12:26.791Z,8.7
2017-05-04T12:13:36.621Z,8.64
2017-05-04T12:14:46.447Z,8.75
2017-05-04T12:15:55.976Z,8.6
2017-05-04T12:17:05.469Z,8.7
2017-05-04T12:18:14.979Z,8.7
2017-05-04T12:19:24.806Z,8.74
2017-05-04T12:20:34.420Z,8.61
2017-05-04T12:21:44.600Z,8.63
2017-05-04T12:22:54.197Z,8.68
2017-05-04T12:24:04.014Z,8.66
2017-05-04T12:25:13.849Z,8.67
2017-05-04T12:26:23.378Z,8.58
2017-05-04T12:27:33.468Z,8.55
2017-05-04T12:28:43.295Z,8.57
2017-05-04T12:29:53.111Z,8.58
2017-05-04T12:31:02.625Z,8.52
2017-05-04T12:32:12.460Z,8.52
2017-05-04T12:33:22.204Z,8.61
2017-05-04T12:34:32.047Z,8.63
2017-05-04T12:35:41.933Z,8.5
2017-05-04T12:36:51.765Z,8.49
2017-05-04T12:38:01.264Z,8.5
2017-05-04T12:39:11.337Z,8.5
2017-05-04T12:40:20.856Z,8.53
2017-05-04T12:41:30.802Z,8.61
2017-05-04T12:42:40.620Z,8.64
2017-05-04T12:43:50.464Z,8.61
2017-05-04T12:45:00.230Z,8.63
2017-05-04T12:46:10.107Z,8.63
2017-05-04T12:47:19.618Z,8.48
2017-05-04T12:48:29.150Z,8.45
2017-05-04T12:49:38.672Z,8.53
2017-05-04T12:50:48.829Z,8.42
2017-05-04T12:51:58.722Z,8.48
2017-05-04T12:53:08.236Z,8.48
2017-05-04T12:54:17.151Z,8.46
2017-05-04T12:55:26.975Z,8.53
2017-05-04T12:56:37.063Z,8.45
2017-05-04T12:57:46.900Z,8.58
2017-05-04T12:58:56.407Z,8.49
2017-05-04T13:00:05.941Z,8.57
2017-05-04T13:01:15.768Z,8.57
2017-05-04T13:02:25.510Z,8.6
2017-05-04T13:03:35.040Z,8.52
2017-05-04T13:04:44.963Z,8.57
2017-05-04T13:05:54.804Z,8.52
2017-05-04T13:07:04.305Z,8.53
2017-05-04T13:08:14.105Z,8.52
2017-05-04T13:09:23.925Z,8.52
2017-05-04T13:10:32.800Z,8.5
2017-05-04T13:11:42.397Z,8.46
2017-05-04T13:12:52.220Z,8.52
2017-05-04T13:14:01.980Z,8.49
2017-05-04T13:15:11.488Z,8.45
2017-05-04T13:16:21.006Z,8.43
2017-05-04T13:17:30.525Z,8.45
2017-05-04T13:18:40.374Z,8.43
2017-05-04T13:19:50.125Z,8.45
2017-05-04T13:20:59.979Z,8.43
2017-05-04T13:22:09.802Z,8.35
2017-05-04T13:23:19.350Z,8.42
2017-05-04T13:24:29.159Z,8.39
2017-05-04T13:25:38.599Z,8.32
2017-05-04T13:26:48.499Z,8.45
2017-05-04T13:27:58.317Z,8.52
2017-05-04T13:29:07.854Z,8.57
2017-05-04T13:30:17.390Z,8.52
2017-05-04T13:31:27.510Z,8.5
2017-05-04T13:32:37.001Z,8.52
2017-05-04T13:33:46.880Z,8.5
2017-05-04T13:34:56.379Z,8.49
2017-05-04T13:36:05.895Z,8.5
2017-05-04T13:37:15.982Z,8.53
2017-05-04T13:38:25.815Z,8.49
2017-05-04T13:39:35.401Z,8.61
2017-05-04T13:40:44.976Z,8.61
2017-05-04T13:41:54.474Z,8.52
2017-05-04T13:43:04.217Z,8.52
2017-05-04T13:44:13.731Z,8.52
2017-05-04T13:45:23.790Z,8.5
2017-05-04T13:46:32.989Z,8.52
2017-05-04T13:47:42.858Z,8.53
2017-05-04T13:48:52.912Z,8.48
2017-05-04T13:50:02.452Z,8.53
2017-05-04T13:51:12.359Z,8.55
2017-05-04T13:52:22.034Z,8.57
2017-05-04T13:53:31.863Z,8.55
2017-05-04T13:54:41.953Z,8.57
2017-05-04T13:55:51.461Z,8.58
2017-05-04T13:57:01.273Z,8.5
2017-05-04T13:58:11.116Z,8.6
2017-05-04T13:59:20.636Z,8.63
2017-05-04T14:00:30.229Z,8.63
2017-05-04T14:01:39.729Z,8.7
2017-05-04T14:02:49.237Z,8.74
2017-05-04T14:03:59.073Z,8.79
2017-05-04T14:05:08.588Z,8.83
2017-05-04T14:06:18.364Z,8.71
2017-05-04T14:07:27.869Z,8.71
2017-05-04T14:08:37.702Z,8.74
2017-05-04T14:09:47.213Z,8.71
2017-05-04T14:10:56.727Z,8.77
2017-05-04T14:12:06.573Z,8.8
2017-05-04T14:13:16.438Z,8.67
2017-05-04T14:14:26.265Z,8.67
2017-05-04T14:15:35.781Z,8.74
2017-05-04T14:16:45.614Z,8.67
2017-05-04T14:17:55.376Z,8.61
2017-05-04T14:19:05.217Z,8.66
2017-05-04T14:20:14.736Z,8.53
2017-05-04T14:21:24.563Z,8.52
2017-05-04T14:22:34.373Z,8.61
2017-05-04T14:23:43.810Z,8.63
2017-05-04T14:24:53.321Z,8.64
2017-05-04T14:26:02.815Z,8.66
2017-05-04T14:27:12.696Z,8.66
2017-05-04T14:28:22.513Z,8.61
2017-05-04T14:29:32.284Z,8.64
2017-05-04T14:30:42.093Z,8.6
2017-05-04T14:31:51.281Z,8.58
2017-05-04T14:33:00.540Z,8.68
2017-05-04T14:34:10.378Z,8.61
2017-05-04T14:35:20.455Z,8.57
2017-05-04T14:36:30.033Z,8.6
2017-05-04T14:37:39.873Z,8.61
2017-05-04T14:38:49.686Z,8.5
2017-05-04T14:39:59.512Z,8.53
2017-05-04T14:41:09.278Z,8.57
2017-05-04T14:42:19.096Z,8.5
2017-05-04T14:43:28.599Z,8.48
2017-05-04T14:44:38.135Z,8.4
2017-05-04T14:45:47.978Z,8.4
2017-05-04T14:46:58.127Z,8.46
2017-05-04T14:48:07.954Z,8.48
2017-05-04T14:49:17.530Z,8.35
2017-05-04T14:50:27.355Z,8.37
2017-05-04T14:51:36.580Z,8.32
2017-05-04T14:52:46.733Z,8.35
2017-05-04T14:53:55.947Z,8.28
2017-05-04T14:55:05.837Z,8.31
2017-05-04T14:56:15.342Z,8.31
2017-05-04T14:57:25.178Z,8.3
2017-05-04T14:58:35.271Z,8.25
2017-05-04T14:59:44.906Z,8.28
2017-05-04T15:00:54.724Z,8.28
2017-05-04T15:02:04.642Z,8.32
2017-05-04T15:03:13.827Z,8.23
2017-05-04T15:04:23.946Z,8.27
2017-05-04T15:05:33.444Z,8.27
2017-05-04T15:06:42.961Z,8.34
2017-05-04T15:07:52.146Z,8.28
2017-05-04T15:09:01.982Z,8.34
2017-05-04T15:10:12.113Z,8.27
2017-05-04T15:11:22.003Z,8.32
2017-05-04T15:12:31.514Z,8.31
2017-05-04T15:13:41.333Z,8.23
2017-05-04T15:14:51.184Z,8.3
2017-05-04T15:16:01.307Z,8.31
2017-05-04T15:17:10.919Z,8.27
2017-05-04T15:18:20.869Z,8.25
2017-05-04T15:19:29.748Z,8.28
2017-05-04T15:20:38.636Z,8.3
2017-05-04T15:21:48.391Z,8.3
2017-05-04T15:22:58.214Z,8.28
2017-05-04T15:24:07.717Z,8.13
2017-05-04T15:25:17.538Z,8.21
2017-05-04T15:26:27.386Z,8.16
2017-05-04T15:27:37.459Z,8.13
2017-05-04T15:28:47.296Z,8.12
2017-05-04T15:29:57.170Z,7.99
2017-05-04T15:31:07.013Z,7.98
2017-05-04T15:32:16.875Z,8.07
2017-05-04T15:33:26.951Z,7.99
2017-05-04T15:34:36.771Z,7.98
2017-05-04T15:35:45.988Z,7.97
2017-05-04T15:36:55.516Z,8.05
2017-05-04T15:38:05.016Z,8.06
2017-05-04T15:39:15.342Z,8.02
2017-05-04T15:40:25.397Z,8.09
2017-05-04T15:41:35.258Z,7.97
2017-05-04T15:42:45.095Z,8.16
2017-05-04T15:43:54.633Z,8.21
2017-05-04T15:45:04.707Z,8.23
2017-05-04T15:46:14.578Z,8.16
2017-05-04T15:47:24.092Z,8.13
2017-05-04T15:48:33.610Z,8.15
2017-05-04T15:49:43.120Z,8.09
2017-05-04T15:50:52.973Z,8.13
2017-05-04T15:52:02.471Z,8.03
2017-05-04T15:53:11.989Z,8.09
2017-05-04T15:54:21.886Z,7.99
2017-05-04T15:55:31.445Z,7.98
2017-05-04T15:56:41.601Z,7.98
2017-05-04T15:57:51.133Z,7.97
2017-05-04T15:59:00.967Z,7.88
2017-05-04T16:00:10.803Z,7.87
2017-05-04T16:01:20.302Z,7.85
2017-05-04T16:02:30.384Z,7.94
2017-05-04T16:03:39.884Z,7.92
2017-05-04T16:04:49.399Z,7.88
2017-05-04T16:05:58.915Z,7.97
2017-05-04T16:07:08.837Z,7.94
2017-05-04T16:08:19.026Z,7.94
2017-05-04T16:09:28.842Z,8.09
2017-05-04T16:10:38.688Z,8.02
2017-05-04T16:11:48.534Z,8.02
2017-05-04T16:12:57.412Z,8.03
2017-05-04T16:14:07.171Z,7.98
2017-05-04T16:15:28.969Z,7.91
2017-05-04T16:16:49.263Z,8.02
2017-05-04T16:18:03.983Z,7.99
2017-05-04T16:19:28.271Z,7.99
2017-05-04T16:21:16.643Z,7.99
2017-05-04T16:22:30.866Z,8.06
2017-05-04T16:23:52.434Z,8.05
2017-05-04T16:25:14.209Z,8.07
2017-05-04T16:26:30.980Z,8.02
2017-05-04T16:27:50.118Z,8.03
2017-05-04T16:29:16.140Z,8.05
2017-05-04T16:30:33.464Z,8.09
2017-05-04T16:31:48.119Z,8.09
2017-05-04T16:33:03.460Z,7.98